Time;durP1;ratioP1;P1;durP2;ratioP2;P2;SDS_P1;SDS_P2;PMS_P1;PMS_P2;Temp;Humidity;BMP_temperature;BMP_pressure;BME280_temperature;BME280_humidity;BME280_pressure;Samples;Min_cycle;Max_cycle;Signal;HPM_P1;HPM_P2
2022/10/28 00:02:23;;;;;;;18.98;12.10;;;14.30;99.90;;;;;;5134192;27;20050;-70
2022/10/28 00:04:50;;;;;;;20.38;12.75;;;14.30;99.90;;;;;;5132625;27;20461;-70
2022/10/28 00:07:28;;;;;;;22.33;12.43;;;14.50;99.90;;;;;;5114542;27;20035;-70
2022/10/28 00:09:55;;;;;;;18.80;12.35;;;14.50;99.90;;;;;;5115438;27;20386;-70
2022/10/28 00:12:26;;;;;;;20.58;12.80;;;14.60;99.90;;;;;;5132779;27;20038;-68
2022/10/28 00:14:58;;;;;;;17.13;11.77;;;14.70;99.90;;;;;;5126704;27;20533;-68
2022/10/28 00:17:27;;;;;;;20.63;12.70;;;14.80;99.90;;;;;;5133992;27;20039;-69
2022/10/28 00:20:16;;;;;;;24.85;12.02;;;14.80;99.90;;;;;;5129943;27;20054;-69
2022/10/28 00:22:42;;;;;;;18.73;11.80;;;14.90;99.90;;;;;;5132796;27;20078;-69
2022/10/28 00:25:10;;;;;;;20.55;11.80;;;14.90;99.90;;;;;;5117418;27;20061;-69
2022/10/28 00:27:38;;;;;;;20.13;12.68;;;14.90;99.90;;;;;;5133704;27;20096;-69
2022/10/28 00:30:07;;;;;;;20.05;11.48;;;14.90;99.90;;;;;;5112909;27;20429;-69
2022/10/28 00:32:37;;;;;;;20.60;10.60;;;14.90;99.90;;;;;;5133229;27;20047;-69
2022/10/28 00:35:22;;;;;;;19.85;11.48;;;14.90;99.90;;;;;;5130909;27;20031;-70
2022/10/28 00:37:52;;;;;;;17.05;11.23;;;14.90;99.90;;;;;;5131471;27;20047;-69
2022/10/28 00:40:20;;;;;;;24.27;11.65;;;14.90;99.90;;;;;;5133584;27;20045;-70
2022/10/28 00:42:48;;;;;;;18.63;11.35;;;14.90;99.90;;;;;;5115027;28;20046;-70
2022/10/28 00:45:18;;;;;;;16.40;10.82;;;14.90;99.90;;;;;;5130462;27;20039;-70
2022/10/28 00:47:54;;;;;;;17.10;10.87;;;14.90;99.90;;;;;;5132222;28;20050;-70
2022/10/28 00:50:50;;;;;;;19.25;10.82;;;14.90;99.90;;;;;;5133290;28;20512;-70
2022/10/28 00:53:23;;;;;;;19.40;11.15;;;14.90;99.90;;;;;;5129796;28;20383;-70
2022/10/28 00:55:50;;;;;;;16.55;10.30;;;14.90;99.90;;;;;;5095401;28;20042;-70
2022/10/28 00:58:22;;;;;;;18.58;10.68;;;14.90;99.90;;;;;;5131123;28;20499;-70
2022/10/28 01:00:55;;;;;;;16.30;10.00;;;14.90;99.90;;;;;;5129426;28;20043;-70
2022/10/28 01:03:22;;;;;;;16.80;10.63;;;14.90;99.90;;;;;;5132096;28;20092;-70
2022/10/28 01:05:51;;;;;;;17.77;11.15;;;14.90;99.90;;;;;;5132340;28;20042;-69
2022/10/28 01:08:19;;;;;;;18.90;11.00;;;14.80;99.90;;;;;;5128991;27;20043;-70
2022/10/28 01:11:30;;;;;;;19.95;11.77;;;14.80;99.90;;;;;;5115706;28;20031;-69
2022/10/28 01:14:28;;;;;;;22.73;12.57;;;14.80;99.90;;;;;;5130968;27;20050;-69
2022/10/28 01:17:14;;;;;;;18.83;11.73;;;14.70;99.90;;;;;;5129975;28;20372;-69
2022/10/28 01:20:24;;;;;;;20.70;11.75;;;14.70;99.90;;;;;;5132021;28;20031;-70
2022/10/28 01:23:04;;;;;;;16.02;10.48;;;14.70;99.90;;;;;;5067634;28;20075;-69
2022/10/28 01:26:15;;;;;;;18.92;11.88;;;14.60;99.90;;;;;;5133425;27;20544;-70
2022/10/28 01:29:07;;;;;;;18.67;10.85;;;14.70;99.90;;;;;;5135748;27;20043;-69
2022/10/28 01:31:56;;;;;;;18.85;10.63;;;14.70;99.90;;;;;;5114125;27;20364;-69
2022/10/28 01:34:35;;;;;;;19.98;10.30;;;14.70;99.90;;;;;;5136891;27;20597;-70
2022/10/28 01:37:21;;;;;;;12.82;10.13;;;14.70;99.90;;;;;;5118823;27;20043;-69
2022/10/28 01:40:05;;;;;;;20.35;10.30;;;14.70;99.90;;;;;;5131109;27;20032;-69
2022/10/28 01:42:43;;;;;;;22.08;10.90;;;14.70;99.90;;;;;;5136932;27;20031;-69
2022/10/28 01:45:18;;;;;;;18.90;10.68;;;14.70;99.90;;;;;;5132193;27;20071;-69
2022/10/28 01:48:46;;;;;;;18.55;10.85;;;14.70;99.90;;;;;;5116316;28;20031;-69
2022/10/28 01:51:21;;;;;;;19.55;10.40;;;14.80;99.90;;;;;;5071822;28;20049;-69
2022/10/28 01:53:53;;;;;;;18.30;11.35;;;14.80;99.90;;;;;;5056308;28;20040;-68
2022/10/28 01:56:27;;;;;;;18.67;9.77;;;14.80;99.90;;;;;;5107733;27;20114;-68
2022/10/28 01:58:56;;;;;;;17.20;10.15;;;14.80;99.90;;;;;;5131050;27;20432;-69
2022/10/28 02:01:24;;;;;;;17.13;10.10;;;14.80;99.90;;;;;;5130173;27;20492;-69
2022/10/28 02:03:55;;;;;;;15.05;10.95;;;14.80;99.90;;;;;;5132143;27;20116;-68
2022/10/28 02:06:27;;;;;;;18.77;10.95;;;14.80;99.90;;;;;;5121203;27;20040;-68
2022/10/28 02:09:06;;;;;;;18.60;10.48;;;14.90;99.90;;;;;;5097310;28;20040;-69
2022/10/28 02:12:00;;;;;;;22.70;10.70;;;14.90;99.90;;;;;;5128032;27;20103;-68
2022/10/28 02:14:39;;;;;;;17.02;9.88;;;15.00;99.90;;;;;;5136127;27;20039;-70
2022/10/28 02:17:28;;;;;;;15.82;9.75;;;14.90;99.90;;;;;;5135403;27;20420;-69
2022/10/28 02:20:30;;;;;;;19.42;11.25;;;15.00;99.90;;;;;;5117727;27;20031;-69
2022/10/28 02:23:33;;;;;;;20.55;10.60;;;15.00;99.90;;;;;;5131948;27;20081;-69
2022/10/28 02:26:20;;;;;;;12.02;9.90;;;15.00;99.90;;;;;;5134277;27;20380;-68
2022/10/28 02:29:12;;;;;;;18.88;10.10;;;15.00;99.90;;;;;;5134392;27;20382;-70
2022/10/28 02:32:14;;;;;;;21.95;10.27;;;15.10;99.90;;;;;;5134483;27;20039;-69
2022/10/28 02:34:46;;;;;;;16.45;10.32;;;15.10;99.90;;;;;;5088342;27;20070;-68
2022/10/28 02:37:27;;;;;;;18.38;10.75;;;15.00;99.90;;;;;;5146760;27;20100;-69
2022/10/28 02:40:09;;;;;;;19.60;9.63;;;15.00;99.90;;;;;;5152264;27;20035;-68
2022/10/28 02:42:40;;;;;;;13.25;9.35;;;15.00;99.90;;;;;;5135588;27;20067;-68
2022/10/28 02:45:40;;;;;;;20.35;11.40;;;15.00;99.90;;;;;;5117425;27;20042;-67
2022/10/28 02:48:27;;;;;;;18.25;10.02;;;15.00;99.90;;;;;;5137508;27;20047;-68
2022/10/28 02:51:14;;;;;;;14.18;10.52;;;15.00;99.90;;;;;;5134788;27;20073;-72
2022/10/28 02:53:55;;;;;;;18.42;10.80;;;15.00;99.90;;;;;;5121821;27;20095;-69
2022/10/28 02:56:25;;;;;;;17.02;10.48;;;15.00;99.90;;;;;;5138021;27;20104;-69
2022/10/28 02:58:55;;;;;;;15.98;11.23;;;14.90;99.90;;;;;;5155862;27;20045;-69
2022/10/28 03:01:21;;;;;;;15.02;9.63;;;15.00;99.90;;;;;;5137372;27;20046;-69
2022/10/28 03:03:47;;;;;;;19.55;11.43;;;14.90;99.90;;;;;;5148628;27;20031;-69
2022/10/28 03:06:16;;;;;;;17.48;10.85;;;14.90;99.90;;;;;;5137422;27;20042;-69
2022/10/28 03:08:53;;;;;;;21.67;11.25;;;14.90;99.90;;;;;;5152228;27;20458;-69
2022/10/28 03:11:20;;;;;;;15.60;10.45;;;14.90;99.90;;;;;;5137182;27;20535;-68
2022/10/28 03:13:46;;;;;;;20.13;10.85;;;14.90;99.90;;;;;;5151212;27;20042;-70
2022/10/28 03:16:18;;;;;;;19.60;11.63;;;14.90;99.90;;;;;;5125710;27;20111;-69
2022/10/28 03:18:48;;;;;;;21.20;11.07;;;14.90;99.90;;;;;;5133089;27;20468;-69
2022/10/28 03:21:16;;;;;;;22.02;11.40;;;14.90;99.90;;;;;;5133993;27;20066;-69
2022/10/28 03:23:43;;;;;;;19.05;10.73;;;14.90;99.90;;;;;;5150720;27;20539;-69
2022/10/28 03:26:20;;;;;;;17.58;11.68;;;14.90;99.90;;;;;;5151027;27;20050;-69
2022/10/28 03:28:50;;;;;;;20.77;12.18;;;14.90;99.90;;;;;;5153860;27;20129;-68
2022/10/28 03:31:19;;;;;;;22.27;12.75;;;14.90;99.90;;;;;;5150767;27;20039;-69
2022/10/28 03:33:48;;;;;;;19.83;12.48;;;14.90;99.90;;;;;;5136522;27;20644;-69
2022/10/28 03:36:18;;;;;;;19.25;12.18;;;14.90;99.90;;;;;;5131579;27;20107;-69
2022/10/28 03:38:50;;;;;;;18.90;11.88;;;14.90;99.90;;;;;;5134357;27;20038;-69
2022/10/28 03:41:17;;;;;;;21.20;12.18;;;14.90;99.90;;;;;;5155231;27;20050;-68
2022/10/28 03:43:43;;;;;;;23.13;12.30;;;14.90;99.90;;;;;;5116488;27;20039;-68
2022/10/28 03:46:15;;;;;;;18.67;12.48;;;14.90;99.90;;;;;;5152830;27;20147;-69
2022/10/28 03:48:43;;;;;;;22.80;12.32;;;14.90;99.90;;;;;;5124718;27;20034;-69
2022/10/28 03:51:11;;;;;;;21.83;11.85;;;14.90;99.90;;;;;;5134054;27;20041;-69
2022/10/28 03:53:37;;;;;;;22.30;13.38;;;14.90;99.90;;;;;;5136774;27;20074;-70
2022/10/28 03:56:04;;;;;;;23.20;12.57;;;14.90;99.90;;;;;;5151813;27;20083;-69
2022/10/28 03:58:35;;;;;;;20.08;12.63;;;14.90;99.90;;;;;;5131449;27;20038;-68
2022/10/28 04:01:04;;;;;;;20.38;13.63;;;14.80;99.90;;;;;;5135913;27;20039;-69
2022/10/28 04:03:32;;;;;;;21.23;12.43;;;14.80;99.90;;;;;;5133707;27;20038;-68
2022/10/28 04:06:02;;;;;;;19.83;12.50;;;14.80;99.90;;;;;;5154889;27;20043;-69
2022/10/28 04:08:40;;;;;;;20.13;13.18;;;14.80;99.90;;;;;;5136062;27;20042;-69
2022/10/28 04:11:09;;;;;;;18.77;11.82;;;14.80;99.90;;;;;;5132003;27;20050;-68
2022/10/28 04:13:59;;;;;;;22.52;12.65;;;14.80;99.90;;;;;;5154571;27;20590;-68
2022/10/28 04:16:28;;;;;;;18.88;12.35;;;14.80;99.90;;;;;;5152500;27;20427;-69
2022/10/28 04:19:32;;;;;;;23.38;14.02;;;14.80;99.90;;;;;;5137568;27;20039;-68
2022/10/28 04:21:59;;;;;;;21.88;12.65;;;14.80;99.90;;;;;;5135481;27;20043;-67
2022/10/28 04:24:25;;;;;;;20.58;13.50;;;14.80;99.90;;;;;;5124448;27;20047;-68
2022/10/28 04:26:57;;;;;;;19.50;12.23;;;14.70;99.90;;;;;;5116422;27;20038;-68
2022/10/28 04:29:24;;;;;;;24.92;13.00;;;14.70;99.90;;;;;;5154369;27;20042;-69
2022/10/28 04:31:50;;;;;;;22.90;14.23;;;14.70;99.90;;;;;;5154349;27;20479;-68
2022/10/28 04:34:20;;;;;;;24.58;14.38;;;14.70;99.90;;;;;;5154210;27;20038;-68
2022/10/28 04:36:47;;;;;;;24.70;14.52;;;14.70;99.90;;;;;;5131559;27;20555;-68
2022/10/28 04:39:28;;;;;;;20.50;12.93;;;14.70;99.90;;;;;;5154256;27;20043;-68
2022/10/28 04:42:01;;;;;;;19.02;12.32;;;14.70;99.90;;;;;;5135596;27;20486;-68
2022/10/28 04:44:29;;;;;;;20.02;12.40;;;14.70;99.90;;;;;;5134935;27;20046;-68
2022/10/28 04:46:58;;;;;;;21.63;13.77;;;14.60;99.90;;;;;;5133363;27;20054;-67
2022/10/28 04:49:31;;;;;;;16.13;12.32;;;14.60;99.90;;;;;;5136255;27;20091;-69
2022/10/28 04:51:58;;;;;;;23.50;14.32;;;14.60;99.90;;;;;;5111554;27;20049;-68
2022/10/28 04:54:25;;;;;;;19.35;12.65;;;14.60;99.90;;;;;;5135922;27;20535;-69
2022/10/28 04:56:55;;;;;;;26.52;13.02;;;14.60;99.90;;;;;;5119057;27;20082;-67
2022/10/28 04:59:22;;;;;;;23.98;13.48;;;14.60;99.90;;;;;;5135571;27;20030;-68
2022/10/28 05:01:49;;;;;;;18.13;12.20;;;14.60;99.90;;;;;;5150274;27;20121;-69
2022/10/28 05:04:18;;;;;;;23.45;13.20;;;14.60;99.90;;;;;;5139111;27;20053;-69
2022/10/28 05:06:50;;;;;;;18.08;11.63;;;14.60;99.90;;;;;;5155344;27;20034;-70
2022/10/28 05:09:20;;;;;;;18.17;12.38;;;14.50;99.90;;;;;;5157341;27;20074;-68
2022/10/28 05:11:49;;;;;;;22.98;12.70;;;14.50;99.90;;;;;;5158093;27;20031;-68
2022/10/28 05:14:21;;;;;;;23.88;13.25;;;14.50;99.90;;;;;;5155291;27;20109;-69
2022/10/28 05:16:47;;;;;;;24.42;12.05;;;14.40;99.90;;;;;;5134440;27;20034;-69
2022/10/28 05:19:21;;;;;;;24.45;12.98;;;14.40;99.90;;;;;;5154698;27;20054;-68
2022/10/28 05:21:48;;;;;;;19.52;13.40;;;14.40;99.90;;;;;;5122232;27;20462;-69
2022/10/28 05:24:19;;;;;;;18.27;12.98;;;14.30;99.90;;;;;;5139766;27;20076;-68
2022/10/28 05:26:49;;;;;;;21.70;12.57;;;14.30;99.90;;;;;;5139439;27;20035;-69
2022/10/28 05:29:18;;;;;;;20.27;12.85;;;14.30;99.90;;;;;;5139339;27;20070;-69
2022/10/28 05:31:49;;;;;;;20.42;12.25;;;14.30;99.90;;;;;;5155625;27;20551;-70
2022/10/28 05:34:15;;;;;;;28.40;13.75;;;14.30;99.90;;;;;;5139326;27;20031;-69
2022/10/28 05:36:44;;;;;;;22.40;12.35;;;14.30;99.90;;;;;;5134605;27;20103;-69
2022/10/28 05:39:12;;;;;;;21.02;12.07;;;14.30;99.90;;;;;;5139169;27;20415;-70
2022/10/28 05:41:39;;;;;;;22.95;12.05;;;14.30;99.90;;;;;;5154905;27;20442;-69
2022/10/28 05:44:05;;;;;;;23.10;11.95;;;14.20;99.90;;;;;;5152943;27;20498;-69
2022/10/28 05:46:32;;;;;;;21.60;12.70;;;14.20;99.90;;;;;;5137058;27;20044;-70
2022/10/28 05:48:58;;;;;;;18.67;12.43;;;14.20;99.90;;;;;;5119177;27;20039;-69
2022/10/28 05:51:26;;;;;;;21.08;12.57;;;14.20;99.90;;;;;;5114941;27;20063;-68
2022/10/28 05:53:55;;;;;;;19.70;11.30;;;14.20;99.90;;;;;;5139636;27;20039;-70
2022/10/28 05:56:31;;;;;;;20.63;11.77;;;14.20;99.90;;;;;;5140371;27;20034;-69
2022/10/28 05:58:57;;;;;;;23.23;12.00;;;14.20;99.90;;;;;;5157369;27;20658;-66
2022/10/28 06:01:29;;;;;;;19.42;11.13;;;14.20;99.90;;;;;;5139118;27;20077;-70
2022/10/28 06:03:55;;;;;;;22.42;12.02;;;14.20;99.90;;;;;;5157232;27;20375;-71
2022/10/28 06:06:27;;;;;;;18.25;10.27;;;14.30;99.90;;;;;;5153169;27;20099;-71
2022/10/28 06:08:54;;;;;;;20.02;11.25;;;14.30;99.90;;;;;;5154278;27;20049;-70
2022/10/28 06:11:33;;;;;;;19.52;10.77;;;14.30;99.90;;;;;;5156222;27;20031;-70
2022/10/28 06:14:00;;;;;;;17.63;11.38;;;14.30;99.90;;;;;;5138076;27;20505;-71
2022/10/28 06:16:26;;;;;;;20.70;11.55;;;14.30;99.90;;;;;;5119191;27;20123;-69
2022/10/28 06:18:53;;;;;;;20.02;10.85;;;14.30;99.90;;;;;;5156342;27;20082;-71
2022/10/28 06:21:22;;;;;;;20.55;10.45;;;14.30;99.90;;;;;;5156939;27;20039;-71
2022/10/28 06:23:48;;;;;;;18.42;10.00;;;14.30;99.90;;;;;;5117662;27;20031;-70
2022/10/28 06:26:14;;;;;;;16.52;10.05;;;14.30;99.90;;;;;;5135608;27;20125;-70
2022/10/28 06:28:41;;;;;;;16.27;9.95;;;14.20;99.90;;;;;;5133017;27;20100;-70
2022/10/28 06:31:10;;;;;;;19.20;11.82;;;14.20;99.90;;;;;;5155965;27;20043;-70
2022/10/28 06:33:47;;;;;;;16.15;9.57;;;14.20;99.90;;;;;;5135693;27;20469;-71
2022/10/28 06:36:17;;;;;;;18.40;10.45;;;14.10;99.90;;;;;;5154937;27;20414;-69
2022/10/28 06:38:46;;;;;;;17.63;9.85;;;14.10;99.90;;;;;;5156512;27;20118;-70
2022/10/28 06:41:12;;;;;;;17.52;9.73;;;14.20;99.90;;;;;;5137501;27;20096;-70
2022/10/28 06:43:40;;;;;;;18.55;10.25;;;14.10;99.90;;;;;;5116841;27;20062;-69
2022/10/28 06:46:10;;;;;;;17.55;10.02;;;14.20;99.90;;;;;;5153183;27;20469;-71
2022/10/28 06:48:37;;;;;;;21.95;10.45;;;14.20;99.90;;;;;;5137792;27;20119;-70
2022/10/28 06:51:12;;;;;;;19.52;10.57;;;14.10;99.90;;;;;;5117824;27;20072;-69
2022/10/28 06:53:39;;;;;;;21.50;10.55;;;14.10;99.90;;;;;;5135255;27;20038;-70
2022/10/28 06:56:15;;;;;;;19.30;9.65;;;14.10;99.90;;;;;;5155921;27;20393;-69
2022/10/28 06:58:56;;;;;;;21.30;10.30;;;14.20;99.90;;;;;;5137909;27;20435;-70
2022/10/28 07:01:23;;;;;;;17.48;9.18;;;14.20;99.90;;;;;;5116663;27;20313;-69
2022/10/28 07:07:37;;;;;;;17.02;9.20;;;14.20;99.90;;;;;;5144377;27;20042;-69
2022/10/28 07:10:05;;;;;;;16.73;8.30;;;14.30;99.90;;;;;;5140887;27;20035;-69
2022/10/28 07:12:46;;;;;;;16.20;9.50;;;14.30;99.90;;;;;;5143690;27;20479;-70
2022/10/28 07:15:24;;;;;;;14.82;9.48;;;14.40;99.90;;;;;;5150732;27;20095;-70
2022/10/28 07:17:56;;;;;;;25.90;9.80;;;14.40;99.90;;;;;;5131560;27;20039;-70
2022/10/28 07:20:25;;;;;;;18.75;9.55;;;14.40;99.90;;;;;;5117161;27;20041;-70
2022/10/28 07:23:01;;;;;;;12.27;8.90;;;14.40;99.90;;;;;;5136838;27;20051;-71
2022/10/28 07:25:30;;;;;;;16.98;8.68;;;14.50;99.90;;;;;;5129076;27;20043;-70
2022/10/28 07:27:59;;;;;;;11.87;9.17;;;14.50;99.90;;;;;;5116359;27;20495;-71
2022/10/28 07:30:26;;;;;;;15.60;8.80;;;14.60;99.90;;;;;;5106719;27;20067;-71
2022/10/28 07:32:59;;;;;;;14.85;8.80;;;14.70;99.90;;;;;;5133132;27;20095;-70
2022/10/28 07:35:41;;;;;;;15.38;8.77;;;14.70;99.90;;;;;;5117291;27;20123;-70
2022/10/28 07:38:17;;;;;;;17.48;8.13;;;14.80;99.90;;;;;;5134432;27;20055;-70
2022/10/28 07:40:43;;;;;;;18.30;8.68;;;14.90;99.90;;;;;;5114157;27;20043;-69
2022/10/28 07:43:11;;;;;;;14.48;7.22;;;15.00;99.90;;;;;;5155414;27;20039;-70
2022/10/28 07:45:41;;;;;;;14.70;7.88;;;15.00;99.90;;;;;;5134568;27;20513;-69
2022/10/28 07:48:09;;;;;;;17.63;7.75;;;15.10;99.90;;;;;;5119832;27;20035;-70
2022/10/28 07:50:42;;;;;;;12.10;8.07;;;15.10;99.90;;;;;;5153069;27;20031;-70
2022/10/28 07:53:09;;;;;;;13.77;7.75;;;15.20;99.90;;;;;;5155155;27;20045;-70
2022/10/28 07:55:59;;;;;;;15.25;7.63;;;15.20;99.90;;;;;;5155064;27;20073;-70
2022/10/28 07:58:44;;;;;;;17.65;7.57;;;15.20;99.90;;;;;;5136316;27;20057;-68
2022/10/28 08:01:17;;;;;;;13.10;7.35;;;15.30;99.90;;;;;;5151130;27;20046;-69
2022/10/28 08:03:46;;;;;;;10.95;7.10;;;15.30;99.90;;;;;;5119879;27;20410;-68
2022/10/28 08:06:18;;;;;;;16.25;7.80;;;15.40;99.90;;;;;;5118647;27;20043;-70
2022/10/28 08:08:58;;;;;;;16.33;7.68;;;15.60;99.90;;;;;;5135897;27;20435;-70
2022/10/28 08:11:27;;;;;;;14.23;7.30;;;15.70;99.90;;;;;;5149486;27;20051;-70
2022/10/28 08:14:02;;;;;;;14.48;8.00;;;15.70;99.90;;;;;;5151114;27;20122;-70
2022/10/28 08:16:31;;;;;;;18.58;8.02;;;15.90;99.90;;;;;;5152145;27;20062;-70
2022/10/28 08:19:00;;;;;;;17.85;7.45;;;16.00;99.90;;;;;;5136071;27;20557;-71
2022/10/28 08:21:27;;;;;;;15.20;7.72;;;16.00;99.90;;;;;;5135945;27;20095;-72
2022/10/28 08:23:54;;;;;;;13.45;6.90;;;16.10;99.90;;;;;;5133084;27;20103;-67
2022/10/28 08:26:21;;;;;;;16.17;7.55;;;16.20;99.90;;;;;;5129362;27;20051;-70
2022/10/28 08:28:51;;;;;;;21.38;8.15;;;16.20;99.90;;;;;;5129435;27;20042;-70
2022/10/28 08:31:17;;;;;;;13.40;7.18;;;16.30;99.90;;;;;;5100492;27;20061;-71
2022/10/28 08:33:45;;;;;;;13.90;7.22;;;16.40;99.90;;;;;;5154396;27;20118;-71
2022/10/28 08:36:24;;;;;;;14.27;7.57;;;16.50;99.90;;;;;;5134781;27;20122;-69
2022/10/28 08:39:00;;;;;;;13.95;6.47;;;16.70;99.90;;;;;;5152756;27;20043;-71
2022/10/28 08:41:42;;;;;;;13.25;6.68;;;16.80;99.90;;;;;;5137011;27;20049;-70
2022/10/28 08:44:42;;;;;;;14.18;6.97;;;17.00;99.90;;;;;;5135870;27;20085;-70
2022/10/28 08:47:50;;;;;;;14.95;6.80;;;17.00;99.90;;;;;;5117144;27;20071;-70
2022/10/28 08:50:23;;;;;;;12.63;6.30;;;17.10;99.90;;;;;;5152836;27;20038;-69
2022/10/28 08:53:11;;;;;;;14.10;6.80;;;17.00;99.90;;;;;;5153960;27;20494;-70
2022/10/28 08:55:43;;;;;;;15.63;7.45;;;16.90;99.90;;;;;;5146199;27;20051;-69
2022/10/28 08:58:25;;;;;;;15.20;6.50;;;16.90;99.90;;;;;;5154031;27;20039;-70
2022/10/28 09:01:08;;;;;;;15.48;6.07;;;16.80;99.90;;;;;;5135791;27;20035;-69
2022/10/28 09:03:45;;;;;;;12.30;6.85;;;16.70;99.90;;;;;;5127878;27;20039;-70
2022/10/28 09:06:19;;;;;;;13.57;7.47;;;16.70;99.90;;;;;;5154139;27;20066;-69
2022/10/28 09:08:50;;;;;;;16.38;6.95;;;16.60;99.90;;;;;;5127831;27;20035;-70
2022/10/28 09:11:42;;;;;;;13.55;6.30;;;16.60;99.90;;;;;;5133098;27;20043;-69
2022/10/28 09:14:35;;;;;;;13.63;7.15;;;16.70;99.90;;;;;;5111240;28;20122;-70
2022/10/28 09:17:19;;;;;;;12.30;6.80;;;16.60;99.90;;;;;;5126998;27;20077;-69
2022/10/28 09:20:06;;;;;;;14.85;6.00;;;16.60;99.90;;;;;;5106989;27;20058;-69
2022/10/28 09:22:57;;;;;;;19.15;7.32;;;16.60;99.90;;;;;;5136225;27;20050;-70
2022/10/28 09:26:01;;;;;;;11.60;6.97;;;16.60;99.90;;;;;;5130853;27;20069;-69
2022/10/28 09:29:25;;;;;;;18.40;6.88;;;16.70;99.90;;;;;;5049222;28;20067;-69
2022/10/28 09:32:26;;;;;;;10.60;6.53;;;16.70;99.90;;;;;;5132773;27;20371;-70
2022/10/28 09:35:07;;;;;;;17.95;6.50;;;16.70;99.90;;;;;;5138223;27;20034;-69
2022/10/28 09:37:44;;;;;;;19.92;6.35;;;16.80;99.90;;;;;;5130386;27;20061;-69
2022/10/28 09:40:29;;;;;;;13.25;6.85;;;16.80;99.90;;;;;;5153294;27;20039;-69
2022/10/28 09:43:06;;;;;;;18.42;6.10;;;16.80;99.90;;;;;;5114740;27;20071;-70
2022/10/28 09:45:44;;;;;;;14.70;6.20;;;16.90;99.90;;;;;;5132705;27;20122;-70
2022/10/28 09:48:33;;;;;;;11.57;6.10;;;16.90;99.90;;;;;;5156371;27;20099;-70
2022/10/28 09:51:01;;;;;;;14.80;6.60;;;17.20;99.90;;;;;;5157127;27;20051;-70
2022/10/28 09:53:41;;;;;;;14.70;5.45;;;17.50;99.90;;;;;;5121752;27;20694;-68
2022/10/28 09:56:10;;;;;;;11.05;5.60;;;17.90;99.90;;;;;;5136809;27;20474;-68
2022/10/28 09:58:48;;;;;;;11.65;6.28;;;18.50;99.90;;;;;;5138871;27;20042;-67
2022/10/28 10:01:19;;;;;;;18.85;6.88;;;19.00;99.90;;;;;;5118822;27;20038;-70
2022/10/28 10:03:50;;;;;;;14.13;4.88;;;19.30;99.90;;;;;;5121485;27;20117;-70
2022/10/28 10:06:28;;;;;;;16.13;6.00;;;19.30;99.90;;;;;;5155422;27;20049;-70
2022/10/28 10:08:56;;;;;;;13.02;5.68;;;19.10;99.90;;;;;;5152840;27;20051;-68
2022/10/28 10:11:47;;;;;;;14.27;6.15;;;19.10;99.90;;;;;;5138470;27;20083;-69
2022/10/28 10:14:38;;;;;;;12.88;5.25;;;19.00;99.90;;;;;;5138268;27;20038;-70
2022/10/28 10:17:26;;;;;;;16.27;6.20;;;18.90;99.90;;;;;;5135879;27;20053;-70
2022/10/28 10:20:15;;;;;;;16.08;5.90;;;19.30;99.90;;;;;;5092917;27;20031;-70
2022/10/28 10:22:50;;;;;;;9.88;5.75;;;19.80;99.90;;;;;;5152808;27;20047;-69
2022/10/28 10:25:28;;;;;;;12.45;5.72;;;20.20;99.90;;;;;;5141350;27;20435;-70
2022/10/28 10:28:00;;;;;;;11.90;5.00;;;20.60;99.90;;;;;;5120113;27;20074;-70
2022/10/28 10:30:49;;;;;;;20.95;5.95;;;21.00;99.90;;;;;;5156563;27;20501;-70
2022/10/28 10:33:29;;;;;;;10.00;4.53;;;21.40;99.90;;;;;;5138305;27;20069;-69
2022/10/28 10:36:30;;;;;;;12.50;5.47;;;21.40;99.90;;;;;;5133682;27;20035;-69
2022/10/28 10:39:21;;;;;;;15.82;5.78;;;21.10;99.90;;;;;;5088721;28;20054;-70
2022/10/28 10:41:47;;;;;;;10.52;5.63;;;20.80;99.90;;;;;;5095675;28;20412;-70
2022/10/28 10:44:33;;;;;;;14.50;5.05;;;20.60;99.90;;;;;;5107745;28;20043;-70
2022/10/28 10:47:03;;;;;;;12.88;4.80;;;20.80;99.90;;;;;;5085238;28;20040;-71
2022/10/28 10:49:30;;;;;;;12.77;6.13;;;21.10;99.90;;;;;;5095259;28;20123;-71
2022/10/28 10:52:06;;;;;;;12.93;5.43;;;21.40;99.90;;;;;;5093411;28;20078;-70
2022/10/28 10:54:44;;;;;;;13.25;4.72;;;21.70;99.90;;;;;;5109838;28;20040;-72
2022/10/28 10:57:21;;;;;;;11.10;4.97;;;22.10;99.90;;;;;;5111583;28;20040;-71
2022/10/28 10:59:54;;;;;;;13.52;4.80;;;22.60;99.90;;;;;;5114302;28;20028;-71
2022/10/28 11:02:46;;;;;;;15.73;5.78;;;22.90;99.90;;;;;;5092633;28;20034;-72
2022/10/28 11:05:20;;;;;;;14.73;4.80;;;22.90;99.90;;;;;;5102729;28;20503;-71
2022/10/28 11:07:50;;;;;;;10.70;5.30;;;22.80;99.90;;;;;;5068198;28;20056;-71
2022/10/28 11:10:29;;;;;;;10.23;4.70;;;22.60;99.90;;;;;;5092285;28;20089;-71
2022/10/28 11:13:02;;;;;;;13.60;4.82;;;22.40;99.90;;;;;;5113220;28;20035;-71
2022/10/28 11:15:32;;;;;;;13.23;5.30;;;22.00;99.90;;;;;;5109567;28;20059;-70
2022/10/28 11:18:30;;;;;;;15.45;5.30;;;21.60;99.90;;;;;;5095844;28;20043;-70
2022/10/28 11:21:41;;;;;;;14.93;4.80;;;21.20;99.90;;;;;;5096273;28;20051;-71
2022/10/28 11:24:36;;;;;;;12.55;5.22;;;21.00;99.90;;;;;;5096094;28;20058;-70
2022/10/28 11:27:30;;;;;;;13.27;5.40;;;20.90;99.90;;;;;;5112202;28;20040;-70
2022/10/28 11:30:03;;;;;;;13.13;5.18;;;21.10;99.90;;;;;;5108554;28;20051;-70
2022/10/28 11:33:28;;;;;;;13.65;5.50;;;21.30;99.90;;;;;;5109930;28;20043;-70
2022/10/28 11:36:36;;;;;;;13.70;5.03;;;21.40;99.90;;;;;;5030877;28;20041;-69
2022/10/28 11:39:44;;;;;;;10.57;5.32;;;21.30;99.90;;;;;;5132562;27;20047;-70
2022/10/28 11:42:17;;;;;;;13.18;5.47;;;21.10;99.90;;;;;;5133554;27;20042;-70
2022/10/28 11:45:25;;;;;;;17.60;6.35;;;20.80;99.90;;;;;;5121056;27;20039;-67
2022/10/28 11:48:01;;;;;;;11.52;5.40;;;20.70;99.90;;;;;;5111939;27;20051;-70
2022/10/28 11:50:39;;;;;;;11.48;5.78;;;20.50;99.90;;;;;;5132611;27;20045;-70
2022/10/28 11:53:43;;;;;;;16.08;5.78;;;20.30;99.90;;;;;;5124988;27;20600;-71
2022/10/28 11:56:22;;;;;;;12.63;5.55;;;20.20;99.90;;;;;;5126819;27;20515;-69
2022/10/28 11:59:19;;;;;;;16.40;5.30;;;20.10;99.90;;;;;;5131184;27;20039;-70
2022/10/28 12:02:07;;;;;;;14.73;5.82;;;20.00;99.90;;;;;;5132283;27;20039;-69
2022/10/28 12:05:03;;;;;;;14.73;5.63;;;19.90;99.90;;;;;;5114948;27;20039;-70
2022/10/28 12:07:44;;;;;;;12.77;5.85;;;19.80;99.90;;;;;;5133011;27;20088;-69
2022/10/28 12:10:33;;;;;;;20.20;6.57;;;19.70;99.90;;;;;;5132409;27;20458;-70
2022/10/28 12:13:24;;;;;;;13.40;6.37;;;19.70;99.90;;;;;;5127059;27;20694;-70
2022/10/28 12:16:06;;;;;;;13.30;5.95;;;19.60;99.90;;;;;;5111411;27;20043;-70
2022/10/28 12:18:46;;;;;;;12.63;5.72;;;19.60;99.90;;;;;;5109367;27;20035;-70
2022/10/28 12:21:35;;;;;;;12.90;6.43;;;19.60;99.90;;;;;;5114931;27;20065;-68
2022/10/28 12:24:05;;;;;;;22.10;6.22;;;19.60;99.90;;;;;;5091997;27;20118;-70
2022/10/28 12:26:44;;;;;;;14.45;6.72;;;19.70;99.90;;;;;;5133449;27;20043;-71
2022/10/28 12:29:41;;;;;;;18.88;6.55;;;19.70;99.90;;;;;;5131325;27;20043;-71
2022/10/28 12:32:13;;;;;;;17.63;6.68;;;19.70;99.90;;;;;;5131740;27;20168;-69
2022/10/28 12:34:46;;;;;;;19.10;7.03;;;19.70;99.90;;;;;;5131695;27;20541;-70
2022/10/28 12:37:26;;;;;;;19.00;6.75;;;19.70;99.90;;;;;;5114461;27;20503;-70
2022/10/28 12:40:23;;;;;;;20.25;6.90;;;19.80;99.90;;;;;;5132079;27;20061;-70
2022/10/28 12:43:04;;;;;;;15.65;6.10;;;19.80;99.90;;;;;;5131787;27;20122;-70
2022/10/28 12:45:33;;;;;;;12.77;7.03;;;19.90;99.90;;;;;;5124048;27;20043;-69
2022/10/28 12:48:23;;;;;;;17.17;5.90;;;19.90;99.90;;;;;;5090849;28;20097;-69
2022/10/28 12:51:20;;;;;;;14.52;6.15;;;20.00;99.90;;;;;;5123276;28;20039;-69
2022/10/28 12:54:13;;;;;;;16.25;6.60;;;20.10;99.90;;;;;;5114347;28;20035;-69
2022/10/28 12:56:56;;;;;;;15.82;6.18;;;20.10;99.90;;;;;;5131163;28;20042;-69
2022/10/28 13:00:00;;;;;;;15.95;5.88;;;20.10;99.90;;;;;;5132785;27;20035;-69
2022/10/28 13:02:37;;;;;;;11.50;6.43;;;20.20;99.90;;;;;;5114489;28;20081;-69
2022/10/28 13:05:04;;;;;;;14.45;6.13;;;20.20;99.90;;;;;;5123833;27;20122;-69
2022/10/28 13:08:01;;;;;;;16.55;5.78;;;20.30;99.90;;;;;;5113904;28;20514;-68
2022/10/28 13:11:05;;;;;;;14.88;6.68;;;20.40;99.90;;;;;;5131658;28;20039;-70
2022/10/28 13:14:00;;;;;;;18.90;7.03;;;20.40;99.90;;;;;;5085564;27;20059;-69
2022/10/28 13:16:58;;;;;;;13.60;6.15;;;20.40;99.90;;;;;;5108818;28;20088;-68
2022/10/28 13:19:45;;;;;;;16.80;5.95;;;20.40;99.90;;;;;;5089633;28;20047;-68
2022/10/28 13:22:40;;;;;;;15.55;6.10;;;20.40;99.90;;;;;;5127750;27;20081;-69
2022/10/28 13:25:16;;;;;;;11.73;6.30;;;20.30;99.90;;;;;;5096354;27;20545;-69
2022/10/28 13:27:43;;;;;;;13.48;6.70;;;20.20;99.90;;;;;;5136233;27;20042;-68
2022/10/28 13:30:20;;;;;;;15.88;6.90;;;20.20;99.90;;;;;;5132611;27;20042;-70